Time;durP1;ratioP1;P1;durP2;ratioP2;P2;SDS_P1;SDS_P2;PMS_P1;PMS_P2;Temp;Humidity;BMP_temperature;BMP_pressure;BME280_temperature;BME280_humidity;BME280_pressure;Samples;Min_cycle;Max_cycle;Signal;HPM_P1;HPM_P2
2022/04/19 00:01:10;;;;;;;23.60;13.77;;;;;;;9.17;57.91;101380.53;5115780;28;20026;-51
2022/04/19 00:03:36;;;;;;;24.08;14.60;;;;;;;9.08;58.67;101384.19;5115107;28;20020;-51
2022/04/19 00:06:01;;;;;;;23.80;14.13;;;;;;;9.00;58.67;101378.16;5115765;28;20016;-56
2022/04/19 00:08:26;;;;;;;24.48;14.88;;;;;;;8.93;59.35;101376.78;5115801;28;20027;-53
2022/04/19 00:10:52;;;;;;;23.58;14.43;;;;;;;8.93;59.43;101382.31;5115492;28;20030;-54
2022/04/19 00:13:17;;;;;;;24.63;14.73;;;;;;;8.93;59.80;101374.84;5115342;28;20027;-53
2022/04/19 00:15:43;;;;;;;23.90;14.75;;;;;;;8.94;59.86;101376.50;5115291;28;20031;-56
2022/04/19 00:18:09;;;;;;;23.70;15.30;;;;;;;8.92;60.65;101375.97;5115238;28;20494;-58
2022/04/19 00:20:38;;;;;;;24.83;15.07;;;;;;;8.88;60.28;101375.69;5096347;28;20077;-57
2022/04/19 00:23:05;;;;;;;24.73;14.60;;;;;;;8.81;60.42;101379.88;5115126;28;20028;-55
2022/04/19 00:25:30;;;;;;;23.83;15.00;;;;;;;8.72;60.83;101374.09;5114554;28;20565;-53
2022/04/19 00:27:56;;;;;;;23.98;14.82;;;;;;;8.65;60.95;101374.38;5114971;28;20028;-57
2022/04/19 00:30:21;;;;;;;22.75;13.88;;;;;;;8.62;60.85;101372.19;5114758;28;20032;-57
2022/04/19 00:32:46;;;;;;;23.27;14.48;;;;;;;8.56;61.22;101368.63;5114091;28;20030;-55
2022/04/19 00:35:12;;;;;;;25.10;15.82;;;;;;;8.51;61.89;101371.38;5114708;28;20024;-55
2022/04/19 00:37:39;;;;;;;24.20;15.32;;;;;;;8.47;62.44;101374.94;5114208;28;20031;-55
2022/04/19 00:40:06;;;;;;;23.60;15.55;;;;;;;8.42;62.61;101362.00;5114054;28;20161;-54
2022/04/19 00:42:32;;;;;;;24.52;15.48;;;;;;;8.33;62.45;101359.00;5114334;28;20039;-54
2022/04/19 00:45:03;;;;;;;25.17;15.25;;;;;;;8.26;62.82;101358.47;5096087;28;20023;-53
2022/04/19 00:47:30;;;;;;;24.02;15.50;;;;;;;8.27;63.16;101369.19;5113830;28;20471;-53
2022/04/19 00:49:55;;;;;;;23.42;14.90;;;;;;;8.30;63.49;101369.75;5114825;28;20016;-54
2022/04/19 00:52:21;;;;;;;25.25;15.27;;;;;;;8.28;64.21;101373.63;5114544;28;20027;-54
2022/04/19 00:54:49;;;;;;;24.15;14.82;;;;;;;8.23;64.29;101373.59;5114296;28;20473;-53
2022/04/19 00:57:14;;;;;;;24.90;15.25;;;;;;;8.16;64.49;101366.75;5113878;28;20023;-54
2022/04/19 00:59:44;;;;;;;24.35;14.43;;;;;;;8.09;64.94;101367.81;5114328;28;20402;-52
2022/04/19 01:02:09;;;;;;;25.58;14.75;;;;;;;8.04;64.69;101361.50;5113691;28;20075;-54
2022/04/19 01:04:35;;;;;;;25.40;16.05;;;;;;;8.00;65.74;101358.47;5113576;28;20055;-54
2022/04/19 01:07:00;;;;;;;24.45;15.65;;;;;;;7.95;66.07;101364.00;5114091;28;20024;-55
2022/04/19 01:09:26;;;;;;;25.25;15.40;;;;;;;7.91;66.12;101360.97;5113439;28;20505;-54
2022/04/19 01:14:36;;;;;;;25.42;15.55;;;;;;;7.87;66.58;101356.28;5113395;28;20399;-54
2022/04/19 01:17:03;;;;;;;24.73;15.02;;;;;;;7.94;66.02;101367.84;5112644;28;20016;-54
2022/04/19 01:19:29;;;;;;;25.52;15.85;;;;;;;7.90;66.30;101363.97;5113896;28;20055;-56
2022/04/19 01:21:55;;;;;;;25.00;15.35;;;;;;;7.87;66.23;101365.34;5113273;28;20059;-54
2022/04/19 01:24:22;;;;;;;23.60;14.98;;;;;;;7.87;66.16;101359.84;5113703;28;20024;-54
2022/04/19 01:26:48;;;;;;;25.25;15.68;;;;;;;7.77;66.30;101360.69;5113316;28;20051;-55
2022/04/19 01:29:15;;;;;;;25.60;15.50;;;;;;;7.78;66.74;101356.84;5113754;28;20471;-54
2022/04/19 01:31:42;;;;;;;25.27;16.30;;;;;;;7.75;66.88;101357.38;5113359;28;20032;-55
2022/04/19 01:34:08;;;;;;;24.80;15.75;;;;;;;7.76;66.56;101363.69;5113480;28;20507;-55
2022/04/19 01:36:35;;;;;;;25.52;15.43;;;;;;;7.70;66.84;101351.03;5113104;28;20035;-55
2022/04/19 01:39:03;;;;;;;25.65;16.02;;;;;;;7.63;67.08;101343.03;5112972;28;20069;-55
2022/04/19 01:41:28;;;;;;;24.30;15.60;;;;;;;7.64;67.24;101352.94;5112865;28;20533;-53
2022/04/19 01:43:54;;;;;;;25.05;15.15;;;;;;;7.62;67.09;101349.63;5113477;28;20032;-55
2022/04/19 01:46:19;;;;;;;23.85;15.38;;;;;;;7.59;67.45;101347.44;5113466;28;20022;-55
2022/04/19 01:48:44;;;;;;;24.70;15.35;;;;;;;7.56;68.08;101348.81;5113752;28;20039;-54
2022/04/19 01:51:11;;;;;;;24.77;15.63;;;;;;;7.51;67.81;101345.25;5112115;28;20081;-53
2022/04/19 01:53:37;;;;;;;24.25;15.50;;;;;;;7.52;67.56;101339.44;5112734;28;20031;-52
2022/04/19 01:56:02;;;;;;;24.58;15.45;;;;;;;7.52;67.63;101335.84;5113198;28;20020;-54
2022/04/19 01:58:27;;;;;;;23.80;14.48;;;;;;;7.48;68.04;101343.84;5094710;28;20468;-53
2022/04/19 02:00:53;;;;;;;24.95;16.05;;;;;;;7.48;67.58;101339.19;5112945;28;20103;-56
2022/04/19 02:03:18;;;;;;;23.70;15.13;;;;;;;7.45;67.10;101339.72;5112456;28;20525;-53
2022/04/19 02:05:43;;;;;;;24.48;15.65;;;;;;;7.40;66.70;101339.72;5112510;28;20031;-51
2022/04/19 02:08:08;;;;;;;23.35;14.77;;;;;;;7.37;67.04;101332.00;5112525;28;20027;-53
2022/04/19 02:10:34;;;;;;;24.88;15.57;;;;;;;7.40;66.42;101339.72;5113083;28;20033;-55
2022/04/19 02:12:59;;;;;;;23.90;15.15;;;;;;;7.36;66.58;101344.09;5112429;28;20032;-54
2022/04/19 02:15:24;;;;;;;23.23;14.77;;;;;;;7.33;66.65;101331.72;5112924;28;20023;-53
2022/04/19 02:17:50;;;;;;;24.77;15.10;;;;;;;7.28;65.89;101333.63;5112465;28;20115;-53
2022/04/19 02:20:17;;;;;;;23.85;14.43;;;;;;;7.30;66.24;101328.69;5112612;28;20047;-56
2022/04/19 02:22:43;;;;;;;23.67;15.13;;;;;;;7.24;65.99;101314.09;5112437;28;20028;-53
2022/04/19 02:25:11;;;;;;;24.70;15.25;;;;;;;7.20;65.67;101321.22;5119587;22;20050;-57
2022/04/19 02:27:37;;;;;;;22.65;14.27;;;;;;;7.22;65.45;101335.53;5051062;28;20033;-55
2022/04/19 02:30:05;;;;;;;23.88;14.00;;;;;;;7.20;65.48;101334.16;5050864;28;20206;-55
2022/04/19 02:32:31;;;;;;;23.73;14.48;;;;;;;7.17;65.55;101332.78;5051037;28;20021;-58
2022/04/19 02:34:57;;;;;;;23.92;14.77;;;;;;;7.12;65.64;101330.00;5050897;28;20126;-60
2022/04/19 02:37:23;;;;;;;23.15;14.07;;;;;;;7.01;65.24;101318.97;5051148;28;20084;-57
2022/04/19 02:39:49;;;;;;;24.23;14.50;;;;;;;7.03;64.77;101329.72;5050225;28;20267;-57
2022/04/19 02:42:15;;;;;;;24.38;14.00;;;;;;;7.02;65.87;101331.63;5050044;28;20461;-56
2022/04/19 02:44:40;;;;;;;23.10;14.43;;;;;;;7.00;66.05;101333.81;5050667;28;20032;-55
2022/04/19 02:47:06;;;;;;;24.77;14.40;;;;;;;6.99;65.60;101329.41;5050255;28;20021;-56
2022/04/19 02:49:33;;;;;;;23.60;14.55;;;;;;;6.99;66.70;101325.84;5050460;28;20502;-57
2022/04/19 02:51:58;;;;;;;23.98;15.20;;;;;;;6.92;65.61;101326.09;5050186;28;20215;-56
2022/04/19 02:54:23;;;;;;;24.05;15.13;;;;;;;6.86;66.20;101325.25;5050830;28;20032;-57
2022/04/19 02:56:48;;;;;;;23.33;14.77;;;;;;;6.84;66.63;101321.94;5050202;28;20037;-56
2022/04/19 02:59:14;;;;;;;23.23;14.95;;;;;;;6.84;65.95;101323.88;5050257;28;20330;-58
2022/04/19 03:01:39;;;;;;;25.20;15.18;;;;;;;6.80;66.43;101326.31;5050467;28;20159;-57
2022/04/19 03:04:05;;;;;;;23.55;14.60;;;;;;;6.76;66.55;101333.44;5050983;28;20044;-56
2022/04/19 03:06:31;;;;;;;26.38;15.45;;;;;;;6.74;66.81;101330.16;5050349;28;20145;-57
2022/04/19 03:08:56;;;;;;;24.80;15.10;;;;;;;6.65;66.64;101315.28;5050849;28;20032;-57
2022/04/19 03:11:22;;;;;;;24.38;14.80;;;;;;;6.59;66.82;101321.81;5049984;28;20021;-57
2022/04/19 03:13:47;;;;;;;24.85;15.80;;;;;;;6.55;67.84;101318.78;5050068;28;20530;-56
2022/04/19 03:16:14;;;;;;;28.15;16.98;;;;;;;6.49;67.72;101317.94;5049838;28;20040;-57
2022/04/19 03:18:42;;;;;;;24.48;15.48;;;;;;;6.46;67.72;101317.63;5050626;28;20107;-56
2022/04/19 03:21:09;;;;;;;26.33;16.10;;;;;;;6.39;68.45;101315.97;5051529;28;20033;-58
2022/04/19 03:29:02;;;;;;;26.30;16.67;;;;;;;6.34;68.56;101313.19;5071407;28;20031;-57
2022/04/19 03:31:27;;;;;;;25.92;16.02;;;;;;;6.33;68.64;101311.50;5070494;28;20036;-56
2022/04/19 03:33:53;;;;;;;25.58;15.40;;;;;;;6.35;68.46;101314.84;5070957;28;20452;-57
2022/04/19 03:36:20;;;;;;;25.83;15.88;;;;;;;6.33;69.37;101317.00;5070367;28;20024;-56
2022/04/19 03:38:45;;;;;;;27.70;16.02;;;;;;;6.31;69.16;101318.38;5071354;28;20036;-58
2022/04/19 03:41:11;;;;;;;25.75;16.08;;;;;;;6.22;69.24;101323.56;5073687;28;20024;-55
2022/04/19 03:43:37;;;;;;;25.17;15.02;;;;;;;6.20;69.79;101314.75;5072988;28;20025;-56
2022/04/19 03:46:02;;;;;;;25.70;15.93;;;;;;;6.22;69.83;101320.81;5073777;28;20423;-58
2022/04/19 03:48:28;;;;;;;26.48;16.00;;;;;;;6.19;69.95;101319.41;5073396;28;20094;-57
2022/04/19 03:50:53;;;;;;;24.92;16.27;;;;;;;6.15;69.74;101310.06;5074248;28;20443;-57
2022/04/19 03:53:19;;;;;;;25.90;15.57;;;;;;;6.11;69.79;101313.59;5073703;28;20373;-58
2022/04/19 03:55:44;;;;;;;24.30;15.65;;;;;;;6.11;69.48;101322.66;5073555;28;20025;-57
2022/04/19 03:58:09;;;;;;;25.42;15.60;;;;;;;6.08;69.49;101326.75;5073442;28;20028;-56
2022/04/19 04:00:35;;;;;;;27.63;16.02;;;;;;;6.04;69.75;101324.81;5072932;28;20032;-57
2022/04/19 04:03:01;;;;;;;26.63;15.85;;;;;;;5.98;70.55;101323.09;5073509;28;20073;-56
2022/04/19 04:05:27;;;;;;;25.65;16.35;;;;;;;5.93;70.90;101321.13;5073227;28;20029;-57
2022/04/19 04:07:55;;;;;;;25.10;15.50;;;;;;;5.88;70.43;101319.19;5073151;28;20030;-57
2022/04/19 04:10:20;;;;;;;26.10;16.13;;;;;;;5.84;70.86;101317.22;5073311;28;20100;-55
2022/04/19 04:12:46;;;;;;;26.85;16.52;;;;;;;5.84;71.08;101314.47;5072837;28;20381;-56
2022/04/19 04:15:11;;;;;;;26.38;16.63;;;;;;;5.77;70.84;101317.44;5073269;28;20040;-57
2022/04/19 04:17:36;;;;;;;25.83;16.33;;;;;;;5.75;70.94;101317.72;5055073;28;20036;-57
2022/04/19 04:20:02;;;;;;;25.10;16.73;;;;;;;5.68;71.62;101322.56;5073586;28;20495;-57
2022/04/19 04:22:27;;;;;;;25.80;16.52;;;;;;;5.67;71.22;101317.34;5073743;28;20098;-57
2022/04/19 04:24:53;;;;;;;27.20;16.75;;;;;;;5.63;71.72;101322.53;5072974;28;20090;-57
2022/04/19 04:27:18;;;;;;;24.50;16.45;;;;;;;5.59;71.44;101326.88;5073130;28;20028;-57
2022/04/19 04:29:43;;;;;;;26.85;17.63;;;;;;;5.60;71.91;101331.28;5073095;28;20470;-57
2022/04/19 04:32:09;;;;;;;24.98;16.10;;;;;;;5.56;71.77;101328.22;5072911;28;20032;-57
2022/04/19 04:34:34;;;;;;;27.50;17.20;;;;;;;5.55;71.69;101331.25;5072842;28;20028;-56
2022/04/19 04:36:59;;;;;;;27.75;17.50;;;;;;;5.54;72.00;101335.06;5073119;28;20028;-56
2022/04/19 04:39:25;;;;;;;26.90;17.25;;;;;;;5.55;72.02;101329.31;5073033;28;20365;-58
2022/04/19 04:41:50;;;;;;;26.08;16.85;;;;;;;5.46;71.32;101322.66;5073256;28;20032;-56
2022/04/19 04:44:15;;;;;;;25.35;16.63;;;;;;;5.50;71.25;101333.94;5072314;28;20028;-58
2022/04/19 04:49:36;;;;;;;27.85;17.38;;;;;;;5.51;71.30;101335.59;5072307;28;20063;-56
2022/04/19 04:52:15;;;;;;;25.20;16.38;;;;;;;5.56;70.87;101332.91;5053467;28;20414;-57
2022/04/19 04:54:42;;;;;;;25.45;16.88;;;;;;;5.50;72.24;101325.69;5073189;28;20024;-58
2022/04/19 04:57:08;;;;;;;24.95;16.35;;;;;;;5.56;71.87;101341.94;5072497;28;20055;-57
2022/04/19 04:59:35;;;;;;;26.40;16.58;;;;;;;5.59;72.15;101346.09;5054432;28;20429;-57
2022/04/19 05:02:01;;;;;;;26.88;17.40;;;;;;;5.60;71.97;101340.34;5072214;28;20421;-55
2022/04/19 05:04:27;;;;;;;28.38;17.85;;;;;;;5.63;72.01;101345.31;5072394;28;20035;-57
2022/04/19 05:06:52;;;;;;;27.58;17.48;;;;;;;5.66;71.99;101343.97;5072615;28;20024;-58
2022/04/19 05:09:18;;;;;;;26.60;16.70;;;;;;;5.71;72.17;101351.44;5071994;28;20071;-56
2022/04/19 05:11:46;;;;;;;27.15;17.83;;;;;;;5.75;71.56;101349.81;5072523;28;20149;-57
2022/04/19 05:14:14;;;;;;;27.40;16.95;;;;;;;5.79;71.35;101348.22;5073014;28;20058;-57
2022/04/19 05:16:40;;;;;;;27.80;17.70;;;;;;;5.86;71.59;101354.31;5055434;28;20378;-56
2022/04/19 05:19:05;;;;;;;27.23;17.35;;;;;;;5.94;70.96;101347.50;5072962;28;20024;-55
2022/04/19 05:21:31;;;;;;;27.27;17.83;;;;;;;6.04;70.25;101349.53;5072553;28;20361;-57
2022/04/19 05:23:57;;;;;;;26.35;16.13;;;;;;;6.12;69.83;101350.97;5072844;28;20090;-57
2022/04/19 05:26:27;;;;;;;26.40;17.17;;;;;;;6.18;69.33;101350.75;5072522;28;20461;-57
2022/04/19 05:28:53;;;;;;;26.05;16.38;;;;;;;6.29;68.03;101348.03;5073172;28;20039;-57
2022/04/19 05:31:18;;;;;;;28.17;16.63;;;;;;;6.38;68.06;101351.94;5072199;28;20111;-57
2022/04/19 05:33:43;;;;;;;28.38;17.23;;;;;;;6.49;67.05;101348.16;5072306;28;20089;-57
2022/04/19 05:36:08;;;;;;;26.70;16.45;;;;;;;6.56;66.30;101337.75;5071855;28;20068;-56
2022/04/19 05:38:34;;;;;;;29.15;15.90;;;;;;;6.71;66.92;101345.25;5071878;28;20094;-57
2022/04/19 05:40:59;;;;;;;29.35;16.50;;;;;;;6.81;66.09;101341.72;5072477;28;20218;-57
2022/04/19 05:43:25;;;;;;;27.40;17.02;;;;;;;6.91;65.44;101345.63;5071153;28;20358;-56
2022/04/19 05:45:50;;;;;;;27.92;17.15;;;;;;;7.02;64.91;101341.81;5072038;28;20035;-58
2022/04/19 05:48:15;;;;;;;27.50;17.45;;;;;;;7.11;64.44;101337.44;5072083;28;20025;-58
2022/04/19 05:50:41;;;;;;;29.85;17.38;;;;;;;7.17;63.81;101338.28;5071702;28;20032;-56
2022/04/19 05:53:06;;;;;;;27.90;17.48;;;;;;;7.32;63.35;101332.00;5071747;28;20033;-56
2022/04/19 05:55:32;;;;;;;28.60;17.40;;;;;;;7.45;62.71;101339.72;5072105;28;20428;-58
2022/04/19 05:57:58;;;;;;;30.95;17.08;;;;;;;7.58;62.57;101345.78;5071726;28;20016;-57
2022/04/19 06:00:23;;;;;;;26.55;17.02;;;;;;;7.69;61.97;101335.59;5071122;28;20429;-56
2022/04/19 06:05:32;;;;;;;30.35;17.10;;;;;;;7.87;61.46;101343.31;5072756;28;20089;-57
2022/04/19 06:07:57;;;;;;;27.70;16.98;;;;;;;7.96;61.86;101349.13;5072368;28;20020;-56
2022/04/19 06:10:22;;;;;;;26.95;17.75;;;;;;;8.03;62.09;101354.34;5072155;28;20042;-55
2022/04/19 06:12:48;;;;;;;28.10;17.05;;;;;;;8.10;61.25;101352.94;5051790;28;20040;-58
2022/04/19 06:15:13;;;;;;;26.45;16.33;;;;;;;8.21;60.70;101356.53;5069837;28;20028;-57
2022/04/19 06:17:40;;;;;;;25.95;16.02;;;;;;;8.33;61.20;101360.91;5069916;28;20056;-57
2022/04/19 06:20:06;;;;;;;25.90;16.83;;;;;;;8.46;60.75;101365.03;5070125;28;20052;-58
2022/04/19 06:22:32;;;;;;;26.20;16.60;;;;;;;8.51;59.79;101354.84;5070053;28;20037;-55
2022/04/19 06:24:58;;;;;;;27.02;16.00;;;;;;;8.63;60.09;101357.31;5069581;28;20032;-57
2022/04/19 06:27:24;;;;;;;26.25;16.15;;;;;;;8.72;59.82;101363.91;5071014;28;20104;-56
2022/04/19 06:29:52;;;;;;;27.92;16.65;;;;;;;8.83;59.64;101361.91;5071158;28;20035;-53
2022/04/19 06:32:18;;;;;;;29.65;18.08;;;;;;;8.93;59.76;101366.56;5071319;28;20102;-55
2022/04/19 06:34:44;;;;;;;28.55;17.17;;;;;;;9.03;58.64;101361.00;5071261;28;20065;-56
2022/04/19 06:37:09;;;;;;;25.65;16.60;;;;;;;9.15;58.39;101373.66;5071217;28;20476;-56
2022/04/19 06:39:34;;;;;;;28.63;17.58;;;;;;;9.25;57.68;101361.75;5061299;28;20113;-54
2022/04/19 06:42:00;;;;;;;27.17;16.52;;;;;;;9.38;57.74;101371.34;5048898;28;20116;-55
2022/04/19 06:44:25;;;;;;;28.70;17.15;;;;;;;9.50;57.07;101372.63;5048068;28;20029;-54
2022/04/19 06:46:50;;;;;;;25.95;16.58;;;;;;;9.61;56.99;101370.63;5048420;28;20039;-55
2022/04/19 06:49:17;;;;;;;26.42;16.70;;;;;;;9.72;56.35;101368.63;5046312;28;20021;-55
2022/04/19 06:51:42;;;;;;;25.90;16.45;;;;;;;9.83;55.61;101361.06;5048524;28;20124;-55
2022/04/19 06:54:09;;;;;;;26.25;16.42;;;;;;;9.94;55.27;101370.09;5049023;28;20107;-55
2022/04/19 06:56:35;;;;;;;27.25;15.80;;;;;;;10.04;54.59;101372.78;5049436;28;20051;-55
2022/04/19 06:59:00;;;;;;;25.73;16.02;;;;;;;10.18;54.57;101366.59;5049171;28;20545;-55
2022/04/19 07:01:26;;;;;;;27.33;16.30;;;;;;;10.33;54.52;101369.19;5048694;28;20043;-54
2022/04/19 07:03:52;;;;;;;29.63;17.73;;;;;;;10.44;53.62;101373.53;5058957;28;20103;-53
2022/04/19 07:06:18;;;;;;;29.60;16.35;;;;;;;10.55;53.69;101368.72;5049355;28;20025;-55
2022/04/19 07:08:43;;;;;;;28.40;16.00;;;;;;;10.68;53.42;101369.97;5048966;28;20424;-56
2022/04/19 07:11:11;;;;;;;29.48;17.05;;;;;;;10.80;53.63;101368.72;5049159;28;20132;-54
2022/04/19 07:13:37;;;;;;;27.42;16.45;;;;;;;10.90;53.40;101365.84;5049251;28;20043;-53
2022/04/19 07:16:02;;;;;;;29.02;16.77;;;;;;;11.03;53.22;101367.06;5052634;28;20104;-55
2022/04/19 07:18:28;;;;;;;28.05;16.73;;;;;;;11.18;52.53;101366.03;5052652;28;20121;-55
2022/04/19 07:26:40;;;;;;;25.77;15.57;;;;;;;11.66;53.38;101370.63;5066949;28;20468;-55
2022/04/19 07:29:12;;;;;;;27.45;16.45;;;;;;;11.83;52.61;101381.16;5052922;28;20044;-52
2022/04/19 07:31:38;;;;;;;28.08;15.68;;;;;;;12.01;51.70;101380.34;5052044;28;20388;-54
2022/04/19 07:34:04;;;;;;;27.13;15.63;;;;;;;12.15;50.33;101376.81;5051677;28;20032;-54
2022/04/19 07:36:29;;;;;;;26.30;15.77;;;;;;;12.31;49.91;101378.16;5051628;28;20055;-55
2022/04/19 07:38:55;;;;;;;25.98;16.17;;;;;;;12.44;49.75;101373.78;5051311;28;20048;-53
2022/04/19 07:41:21;;;;;;;27.50;16.02;;;;;;;12.57;48.65;101382.44;5052335;28;20029;-54
2022/04/19 07:43:47;;;;;;;25.45;15.68;;;;;;;12.68;47.25;101381.09;5053202;28;20079;-54
2022/04/19 07:46:15;;;;;;;26.30;15.48;;;;;;;12.81;47.33;101382.25;5035454;28;20120;-55
2022/04/19 07:48:44;;;;;;;25.55;14.40;;;;;;;12.91;46.76;101381.19;5052426;28;20048;-56
2022/04/19 07:51:09;;;;;;;24.17;14.43;;;;;;;12.98;45.86;101383.56;5052940;28;20033;-55
2022/04/19 07:53:35;;;;;;;24.50;13.38;;;;;;;13.07;46.71;101382.53;5052354;28;20029;-54
2022/04/19 07:56:00;;;;;;;24.83;14.02;;;;;;;13.16;46.43;101379.84;5052076;28;20110;-55
2022/04/19 07:58:26;;;;;;;25.23;14.57;;;;;;;13.25;45.17;101382.72;5052492;28;20056;-54
2022/04/19 08:00:51;;;;;;;25.27;14.20;;;;;;;13.32;45.78;101379.53;5052135;28;20409;-55
2022/04/19 08:03:16;;;;;;;24.77;13.80;;;;;;;13.45;45.37;101389.81;5052140;28;20437;-56
2022/04/19 08:05:41;;;;;;;24.77;14.25;;;;;;;13.57;46.20;101384.53;5052268;28;20028;-55
2022/04/19 08:08:07;;;;;;;23.20;13.02;;;;;;;13.69;44.65;101385.94;5052355;28;20025;-55
2022/04/19 08:10:32;;;;;;;24.35;13.60;;;;;;;13.78;44.25;101388.78;5052128;28;20037;-56
2022/04/19 08:12:57;;;;;;;24.17;12.63;;;;;;;13.81;42.92;101379.81;5034031;28;20503;-57
2022/04/19 08:15:24;;;;;;;23.98;13.13;;;;;;;13.83;43.37;101383.13;5051369;28;20070;-56
2022/04/19 08:17:50;;;;;;;22.35;11.68;;;;;;;13.85;41.96;101380.81;5050173;28;20401;-55
2022/04/19 08:20:15;;;;;;;22.13;11.50;;;;;;;13.85;42.38;101380.81;5051285;28;20064;-56
2022/04/19 08:22:41;;;;;;;23.60;11.88;;;;;;;13.92;41.63;101377.59;5052063;28;20491;-54
2022/04/19 08:25:08;;;;;;;24.33;11.73;;;;;;;13.98;41.42;101381.91;5051217;28;20480;-55
2022/04/19 08:27:39;;;;;;;22.90;11.90;;;;;;;14.07;41.76;101373.63;5034452;28;20608;-56
2022/04/19 08:30:06;;;;;;;21.50;11.65;;;;;;;14.15;41.19;101370.06;5052542;28;20036;-56
2022/04/19 08:32:31;;;;;;;21.38;11.95;;;;;;;14.16;40.93;101368.94;5052713;28;20053;-55
2022/04/19 08:34:56;;;;;;;24.05;12.30;;;;;;;14.10;40.54;101371.03;5072470;28;20474;-56
2022/04/19 08:37:22;;;;;;;23.17;11.63;;;;;;;14.15;41.51;101357.00;5072436;28;20104;-56
2022/04/19 08:39:47;;;;;;;22.95;11.45;;;;;;;14.20;41.26;101356.84;5072200;28;20028;-57
2022/04/19 08:42:12;;;;;;;21.33;11.68;;;;;;;14.32;40.96;101364.59;5071835;28;20408;-56
2022/04/19 08:44:38;;;;;;;22.45;11.40;;;;;;;14.41;41.52;101355.47;5071335;28;20043;-55
2022/04/19 08:47:06;;;;;;;22.00;11.65;;;;;;;14.51;40.96;101372.72;5071948;28;20033;-55
2022/04/19 08:49:38;;;;;;;22.35;12.02;;;;;;;14.51;41.16;101355.19;5070353;28;20051;-55
2022/04/19 08:52:03;;;;;;;22.77;11.10;;;;;;;14.66;40.52;101362.28;5053895;28;20051;-55
2022/04/19 08:57:30;;;;;;;22.17;11.98;;;;;;;14.85;41.28;101361.25;5071957;28;20052;-55
2022/04/19 08:59:57;;;;;;;20.88;10.13;;;;;;;14.98;39.50;101360.31;5070923;28;20060;-55
2022/04/19 09:02:24;;;;;;;19.40;9.93;;;;;;;15.05;38.82;101355.09;5071022;28;20139;-55
2022/04/19 09:04:51;;;;;;;19.88;9.88;;;;;;;15.08;39.06;101361.97;5071203;28;20036;-54
2022/04/19 09:07:17;;;;;;;18.40;9.40;;;;;;;15.17;38.30;101362.00;5070124;28;20105;-56
2022/04/19 09:09:42;;;;;;;19.45;9.13;;;;;;;15.26;38.27;101351.69;5070751;28;20056;-57
2022/04/19 09:12:12;;;;;;;20.75;9.55;;;;;;;15.33;38.08;101365.94;5070318;28;20107;-60
2022/04/19 09:15:00;;;;;;;19.73;9.27;;;;;;;15.39;38.30;101359.09;5070221;28;20042;-55
2022/04/19 09:17:48;;;;;;;21.30;10.10;;;;;;;15.42;37.95;101357.59;5070552;28;20044;-55
2022/04/19 09:20:15;;;;;;;19.35;9.73;;;;;;;15.48;37.81;101352.69;5070243;28;20111;-55
2022/04/19 09:22:42;;;;;;;20.25;9.35;;;;;;;15.65;38.96;101351.84;5070046;28;20079;-56
2022/04/19 09:25:18;;;;;;;20.38;10.07;;;;;;;15.71;38.13;101340.22;5070007;28;20036;-57
2022/04/19 09:27:44;;;;;;;19.77;9.48;;;;;;;15.82;37.05;101342.66;5070425;28;20039;-56
2022/04/19 09:30:24;;;;;;;19.92;9.43;;;;;;;15.88;38.10;101333.00;5070283;28;20435;-56
2022/04/19 09:33:06;;;;;;;20.00;9.90;;;;;;;16.05;37.51;101348.91;5070460;28;20109;-56
2022/04/19 09:35:50;;;;;;;19.10;9.20;;;;;;;16.06;37.23;101342.97;5070118;28;20086;-57
2022/04/19 09:38:15;;;;;;;19.13;9.40;;;;;;;16.06;36.25;101337.38;5070386;28;20031;-55
2022/04/19 09:40:45;;;;;;;21.23;9.32;;;;;;;16.18;36.46;101333.09;5069624;28;20029;-56
2022/04/19 09:43:16;;;;;;;19.67;9.65;;;;;;;16.32;36.62;101330.94;5069960;28;20037;-55
2022/04/19 09:45:50;;;;;;;20.52;9.98;;;;;;;16.36;36.94;101329.09;5070096;28;20052;-55
2022/04/19 09:48:24;;;;;;;20.63;9.95;;;;;;;16.35;36.12;101323.84;5067941;28;20032;-55
2022/04/19 09:51:12;;;;;;;21.38;9.98;;;;;;;16.25;36.59;101316.66;5070110;28;20040;-55
2022/04/19 09:53:39;;;;;;;19.17;9.15;;;;;;;16.32;36.40;101333.72;5069659;28;20129;-55
2022/04/19 09:56:09;;;;;;;19.25;9.25;;;;;;;16.31;36.65;101323.72;5069706;28;20036;-55
2022/04/19 09:58:37;;;;;;;20.08;9.30;;;;;;;16.43;36.30;101334.19;5051896;28;20071;-55
2022/04/19 10:01:02;;;;;;;19.17;8.88;;;;;;;16.59;36.46;101326.06;5069699;28;20032;-56
2022/04/19 10:08:58;;;;;;;21.00;10.18;;;;;;;16.67;36.17;101308.44;5070355;28;20055;-55
2022/04/19 10:11:26;;;;;;;19.83;10.27;;;;;;;16.71;36.47;101316.16;5052251;28;20504;-55
2022/04/19 10:13:54;;;;;;;20.13;10.00;;;;;;;16.81;36.32;101319.38;5070535;28;20081;-53
2022/04/19 10:16:19;;;;;;;21.20;10.70;;;;;;;16.98;35.88;101320.44;5070195;28;20103;-55
2022/04/19 10:18:45;;;;;;;20.27;9.75;;;;;;;16.86;35.18;101329.53;5070377;28;20166;-53
2022/04/19 10:21:15;;;;;;;21.05;9.82;;;;;;;16.78;35.79;101325.63;5070310;28;20043;-55
2022/04/19 10:23:41;;;;;;;20.48;9.52;;;;;;;16.82;34.95;101329.41;5069566;28;20464;-53
2022/04/19 10:26:19;;;;;;;21.70;9.80;;;;;;;16.79;35.58;101320.88;5068794;28;20060;-57
2022/04/19 10:28:45;;;;;;;19.13;9.30;;;;;;;16.89;35.29;101323.28;5066278;28;20040;-55
2022/04/19 10:31:12;;;;;;;20.17;9.63;;;;;;;17.06;35.72;101318.75;5060371;28;20200;-53
2022/04/19 10:33:54;;;;;;;20.13;10.00;;;;;;;17.08;36.05;101314.47;5069470;28;20036;-55
2022/04/19 10:36:31;;;;;;;21.17;10.15;;;;;;;17.19;35.76;101314.91;5069670;28;20041;-55
2022/04/19 10:39:11;;;;;;;21.48;11.20;;;;;;;17.30;35.98;101318.91;5070002;28;20033;-55
2022/04/19 10:41:55;;;;;;;19.30;9.73;;;;;;;17.43;36.01;101317.00;5070193;28;20107;-55
2022/04/19 10:44:23;;;;;;;21.27;9.63;;;;;;;17.53;34.84;101310.19;5070089;28;20404;-55
2022/04/19 10:47:05;;;;;;;19.48;9.75;;;;;;;17.64;35.16;101313.34;5069597;28;20461;-54
2022/04/19 10:49:31;;;;;;;19.40;8.80;;;;;;;17.64;33.90;101310.56;5072622;28;20032;-53
2022/04/19 10:52:00;;;;;;;19.70;9.60;;;;;;;17.71;33.85;101310.81;5073675;28;20098;-55
2022/04/19 10:55:02;;;;;;;21.30;9.60;;;;;;;17.82;33.23;101318.78;5073582;28;20098;-55
2022/04/19 11:00:33;;;;;;;19.83;9.47;;;;;;;17.50;34.45;101296.88;5073221;28;20496;-55
2022/04/19 11:03:02;;;;;;;19.05;9.77;;;;;;;17.60;34.59;101295.63;5073247;28;20492;-56
2022/04/19 11:05:44;;;;;;;19.25;9.13;;;;;;;17.70;33.59;101303.63;5074181;28;20028;-55
2022/04/19 11:08:24;;;;;;;20.50;9.30;;;;;;;17.70;33.91;101303.63;5074333;28;20494;-55
2022/04/19 11:10:50;;;;;;;21.13;10.10;;;;;;;17.71;33.51;101296.03;5073793;28;20086;-56
2022/04/19 11:13:17;;;;;;;21.17;9.32;;;;;;;17.81;33.27;101301.19;5073174;28;20032;-55
2022/04/19 11:15:42;;;;;;;21.10;9.93;;;;;;;17.72;32.74;101289.25;5072879;28;20028;-54
2022/04/19 11:18:27;;;;;;;19.23;9.23;;;;;;;17.87;33.66;101293.41;5072918;28;20070;-55
2022/04/19 11:20:54;;;;;;;17.45;8.25;;;;;;;17.81;31.84;101295.59;5073057;28;20032;-54
2022/04/19 11:23:22;;;;;;;20.17;9.18;;;;;;;17.90;32.65;101290.72;5073010;28;20024;-55
2022/04/19 11:25:48;;;;;;;19.52;9.10;;;;;;;18.04;33.16;101293.25;5073084;28;20051;-53
2022/04/19 11:28:18;;;;;;;20.30;10.00;;;;;;;18.14;33.41;101277.97;5055816;28;20031;-53
2022/04/19 11:31:05;;;;;;;18.88;9.45;;;;;;;18.19;32.36;101277.75;5073451;28;20544;-54
2022/04/19 11:33:33;;;;;;;19.70;9.23;;;;;;;18.31;32.80;101270.53;5072922;28;20076;-55
2022/04/19 11:36:00;;;;;;;18.80;9.20;;;;;;;18.34;32.63;101264.22;5073305;28;20062;-54
2022/04/19 11:38:27;;;;;;;20.02;9.52;;;;;;;18.38;31.96;101271.56;5073021;28;20028;-54
2022/04/19 11:49:07;;;;;;;;;;;;;;;18.44;32.81;101263.75;5072568;28;20086;-53
2022/04/19 11:51:35;;;;;;;17.98;8.93;;;;;;;18.47;31.99;101265.88;5073167;28;20313;-54
2022/04/19 11:54:01;;;;;;;20.30;9.55;;;;;;;18.45;32.26;101268.19;5073375;28;20039;-54
2022/04/19 11:56:27;;;;;;;20.10;10.27;;;;;;;18.47;32.68;101271.47;5072361;28;20123;-56